createdAt,value
2022-11-08T00:02:16.505Z,100754.20
2022-11-08T00:05:26.734Z,100753.01
2022-11-08T00:08:35.359Z,100753.83
2022-11-08T00:11:45.348Z,100751.70
2022-11-08T00:14:36.531Z,100749.58
2022-11-08T00:17:28.415Z,100751.01
2022-11-08T00:20:19.040Z,100748.84
2022-11-08T00:23:09.771Z,100750.48
2022-11-08T00:26:00.274Z,100749.24
2022-11-08T00:28:50.788Z,100748.75
2022-11-08T00:31:41.200Z,100752.51
2022-11-08T00:34:31.880Z,100751.48
2022-11-08T00:37:22.723Z,100749.48
2022-11-08T00:40:14.606Z,100750.23
2022-11-08T00:43:05.049Z,100752.89
2022-11-08T00:45:55.766Z,100754.88
2022-11-08T00:48:46.458Z,100760.73
2022-11-08T00:51:37.065Z,100758.41
2022-11-08T00:54:27.661Z,100754.55
2022-11-08T00:57:18.110Z,100757.98
2022-11-08T01:00:12.535Z,100756.88
2022-11-08T01:03:21.514Z,100757.11
2022-11-08T01:06:13.060Z,100759.40
2022-11-08T01:09:04.355Z,100753.59
2022-11-08T01:11:55.108Z,100756.25
2022-11-08T01:14:45.968Z,100760.96
2022-11-08T01:17:36.439Z,100757.60
2022-11-08T01:20:27.675Z,100758.80
2022-11-08T01:23:18.692Z,100762.89
2022-11-08T01:26:12.848Z,100758.47
2022-11-08T01:29:03.301Z,100760.59
2022-11-08T01:31:53.784Z,100761.26
2022-11-08T01:34:44.201Z,100757.37
2022-11-08T01:37:35.004Z,100758.27
2022-11-08T01:40:25.406Z,100758.10
2022-11-08T01:43:43.599Z,100753.30
2022-11-08T01:46:39.406Z,100754.52
2022-11-08T01:49:44.567Z,100753.13
2022-11-08T01:52:35.920Z,100755.55
2022-11-08T01:55:27.953Z,100759.43
2022-11-08T01:58:20.152Z,100759.11
2022-11-08T02:01:10.846Z,100756.95
2022-11-08T02:04:01.513Z,100761.03
2022-11-08T02:06:52.066Z,100762.42
2022-11-08T02:09:45.211Z,100761.36
2022-11-08T02:12:35.661Z,100759.92
2022-11-08T02:15:26.207Z,100758.58
2022-11-08T02:18:17.615Z,100758.90
2022-11-08T02:21:11.559Z,100759.89
2022-11-08T02:24:04.878Z,100756.41
2022-11-08T02:26:55.541Z,100753.76
2022-11-08T02:29:46.040Z,100754.85
2022-11-08T02:32:40.364Z,100759.27
2022-11-08T02:35:30.741Z,100752.89
2022-11-08T02:38:21.573Z,100755.34
2022-11-08T02:41:12.117Z,100754.83
2022-11-08T02:44:02.627Z,100755.55
2022-11-08T02:46:53.172Z,100751.94
2022-11-08T02:49:44.030Z,100746.48
2022-11-08T02:52:34.506Z,100742.19
2022-11-08T02:55:25.401Z,100742.41
2022-11-08T02:58:16.311Z,100743.65
2022-11-08T03:01:07.510Z,100741.16
2022-11-08T03:03:58.044Z,100742.19
2022-11-08T03:06:48.693Z,100743.17
2022-11-08T03:09:39.095Z,100753.26
2022-11-08T03:12:29.942Z,100753.41
2022-11-08T03:15:20.676Z,100757.53
2022-11-08T03:18:11.423Z,100759.27
2022-11-08T03:21:01.874Z,100765.48
2022-11-08T03:23:52.335Z,100762.98
2022-11-08T03:26:43.021Z,100762.45
2022-11-08T03:29:33.472Z,100761.92
2022-11-08T03:32:24.001Z,100760.32
2022-11-08T03:35:14.867Z,100756.23
2022-11-08T03:38:05.437Z,100749.30
2022-11-08T03:40:55.913Z,100749.92
2022-11-08T03:43:46.437Z,100752.91
2022-11-08T03:46:36.873Z,100753.69
2022-11-08T03:49:27.797Z,100755.34
2022-11-08T03:52:18.533Z,100754.94
2022-11-08T03:55:11.384Z,100751.79
2022-11-08T03:58:01.971Z,100747.33
2022-11-08T04:00:52.634Z,100746.67
2022-11-08T04:03:43.189Z,100744.52
2022-11-08T04:06:33.669Z,100742.90
2022-11-08T04:09:24.181Z,100735.10
2022-11-08T04:12:33.321Z,100744.38
2022-11-08T04:15:24.161Z,100748.71
2022-11-08T04:18:33.135Z,100747.27
2022-11-08T04:21:23.784Z,100746.00
2022-11-08T04:24:14.297Z,100747.77
2022-11-08T04:27:04.965Z,100753.72
2022-11-08T04:29:56.559Z,100753.92
2022-11-08T04:32:47.014Z,100755.05
2022-11-08T04:35:37.496Z,100757.94
2022-11-08T04:38:27.950Z,100755.27
2022-11-08T04:41:19.994Z,100753.55
2022-11-08T04:44:11.211Z,100756.36
2022-11-08T04:47:01.708Z,100763.71
2022-11-08T04:49:52.161Z,100762.68
2022-11-08T04:52:43.239Z,100760.50
2022-11-08T04:55:33.800Z,100760.08
2022-11-08T04:58:24.420Z,100761.91
2022-11-08T05:01:17.007Z,100759.77
2022-11-08T05:04:07.700Z,100760.45
2022-11-08T05:06:58.220Z,100758.91
2022-11-08T05:09:50.735Z,100758.45
2022-11-08T05:12:44.072Z,100759.76
2022-11-08T05:15:37.699Z,100757.01
2022-11-08T05:18:28.453Z,100755.28
2022-11-08T05:21:38.841Z,100752.49
2022-11-08T05:24:33.208Z,100754.98
2022-11-08T05:27:23.679Z,100757.55
2022-11-08T05:30:15.053Z,100760.09
2022-11-08T05:33:05.792Z,100761.34
2022-11-08T05:35:56.718Z,100758.86
2022-11-08T05:38:47.487Z,100759.25
2022-11-08T05:41:38.478Z,100759.41
2022-11-08T05:44:29.211Z,100760.23
2022-11-08T05:47:20.639Z,100765.64
2022-11-08T05:50:15.469Z,100771.24
2022-11-08T05:53:09.498Z,100774.80
2022-11-08T05:56:01.626Z,100773.73
2022-11-08T05:58:52.106Z,100779.79
2022-11-08T06:01:42.804Z,100784.77
2022-11-08T06:04:33.882Z,100784.84
2022-11-08T06:07:24.612Z,100788.45
2022-11-08T06:10:15.277Z,100786.75
2022-11-08T06:13:09.220Z,100786.64
2022-11-08T06:16:02.582Z,100791.79
2022-11-08T06:18:53.610Z,100795.67
2022-11-08T06:21:45.628Z,100793.72
2022-11-08T06:24:36.258Z,100792.33
2022-11-08T06:27:26.976Z,100792.13
2022-11-08T06:30:17.798Z,100795.75
2022-11-08T06:33:08.631Z,100800.41
2022-11-08T06:35:59.885Z,100797.46
2022-11-08T06:38:54.541Z,100799.42
2022-11-08T06:41:50.073Z,100795.61
2022-11-08T06:44:41.077Z,100800.27
2022-11-08T06:47:31.840Z,100794.29
2022-11-08T06:50:24.364Z,100795.98
2022-11-08T06:53:16.366Z,100795.35
2022-11-08T06:56:08.647Z,100802.52
2022-11-08T06:58:59.253Z,100802.72
2022-11-08T07:01:55.252Z,100800.23
2022-11-08T07:04:44.916Z,100796.81
2022-11-08T07:07:36.656Z,100794.20
2022-11-08T07:10:28.440Z,100796.00
2022-11-08T07:13:19.511Z,100800.34
2022-11-08T07:16:11.898Z,100801.38
2022-11-08T07:19:05.074Z,100801.41
2022-11-08T07:21:56.353Z,100803.09
2022-11-08T07:24:46.937Z,100799.41
2022-11-08T07:27:37.659Z,100799.70
2022-11-08T07:30:28.765Z,100803.84
2022-11-08T07:33:19.565Z,100809.13
2022-11-08T07:36:11.242Z,100810.35
2022-11-08T07:39:06.488Z,100812.45
2022-11-08T07:41:57.746Z,100810.55
2022-11-08T07:44:49.457Z,100810.35
2022-11-08T07:47:40.205Z,100811.27
2022-11-08T07:50:30.895Z,100812.17
2022-11-08T07:53:21.595Z,100814.08
2022-11-08T07:56:12.130Z,100812.45
2022-11-08T07:59:02.723Z,100813.55
2022-11-08T08:01:53.424Z,100817.17
2022-11-08T08:04:44.022Z,100817.33
2022-11-08T08:07:35.477Z,100825.67
2022-11-08T08:10:27.362Z,100819.79
2022-11-08T08:13:18.426Z,100818.02
2022-11-08T08:16:09.688Z,100819.55
2022-11-08T08:19:02.269Z,100811.23
2022-11-08T08:21:54.044Z,100818.65
2022-11-08T08:24:44.798Z,100814.77
2022-11-08T08:27:35.199Z,100812.98
2022-11-08T08:30:25.767Z,100812.52
2022-11-08T08:33:32.462Z,100815.73
2022-11-08T08:36:23.286Z,100814.20
2022-11-08T08:39:13.821Z,100814.06
2022-11-08T08:42:04.774Z,100819.24
2022-11-08T08:44:55.649Z,100821.93
2022-11-08T08:47:46.475Z,100825.02
2022-11-08T08:50:37.067Z,100824.09
2022-11-08T08:53:27.982Z,100817.64
2022-11-08T08:56:18.716Z,100813.52
2022-11-08T09:02:19.559Z,100811.94
2022-11-08T09:05:11.173Z,100815.59
2022-11-08T09:08:01.561Z,100813.83
2022-11-08T09:10:55.698Z,100815.91
2022-11-08T09:13:46.600Z,100818.59
2022-11-08T09:16:37.306Z,100814.63
2022-11-08T09:19:28.322Z,100814.03
2022-11-08T09:22:18.767Z,100817.11
2022-11-08T09:25:10.416Z,100816.17
2022-11-08T09:28:00.748Z,100816.27
2022-11-08T09:30:51.029Z,100817.46
2022-11-08T09:33:41.639Z,100823.23
2022-11-08T09:36:32.206Z,100820.54
2022-11-08T09:39:22.600Z,100818.71
2022-11-08T09:42:44.762Z,100818.34
2022-11-08T09:45:36.311Z,100808.24
2022-11-08T09:48:33.590Z,100808.73
2022-11-08T09:51:24.956Z,100812.71
2022-11-08T09:54:19.900Z,100816.17
2022-11-08T09:57:13.921Z,100809.09
2022-11-08T10:00:10.265Z,100811.80
2022-11-08T10:03:01.464Z,100813.63
2022-11-08T10:06:13.623Z,100815.48
2022-11-08T10:09:14.196Z,100813.42
2022-11-08T10:12:13.302Z,100808.86
2022-11-08T10:15:14.692Z,100814.65
2022-11-08T10:18:39.986Z,100812.76
2022-11-08T10:21:56.433Z,100811.45
2022-11-08T10:24:50.651Z,100805.02
2022-11-08T10:27:42.657Z,100803.96
2022-11-08T10:30:35.498Z,100806.41
2022-11-08T10:33:29.408Z,100810.96
2022-11-08T10:36:24.039Z,100808.67
2022-11-08T10:39:17.595Z,100800.45
2022-11-08T10:42:10.192Z,100801.65
2022-11-08T10:45:00.818Z,100798.76
2022-11-08T10:47:51.772Z,100796.20
2022-11-08T10:50:44.919Z,100791.67
2022-11-08T10:53:35.291Z,100790.24
2022-11-08T10:56:25.570Z,100784.11
2022-11-08T10:59:29.638Z,100779.73
2022-11-08T11:02:29.650Z,100776.48
2022-11-08T11:05:28.563Z,100769.97
2022-11-08T11:08:19.503Z,100771.49
2022-11-08T11:11:25.300Z,100769.05
2022-11-08T11:14:22.273Z,100764.55
2022-11-08T11:17:18.062Z,100768.23
2022-11-08T11:20:21.629Z,100768.23
2022-11-08T11:23:13.607Z,100764.47
2022-11-08T11:26:04.586Z,100763.73
2022-11-08T11:29:16.764Z,100763.73
2022-11-08T11:32:25.142Z,100762.14
2022-11-08T11:35:15.649Z,100763.84
2022-11-08T11:38:08.255Z,100760.44
2022-11-08T11:41:08.320Z,100759.17
2022-11-08T11:44:10.604Z,100761.70
2022-11-08T11:47:04.119Z,100760.97
2022-11-08T11:49:54.837Z,100761.05
2022-11-08T11:52:45.553Z,100757.30
2022-11-08T11:55:47.020Z,100759.95
2022-11-08T11:58:54.536Z,100759.58
2022-11-08T12:02:14.381Z,100760.14
2022-11-08T12:05:27.945Z,100761.02
2022-11-08T12:08:25.027Z,100757.48
2022-11-08T12:11:41.140Z,100760.16
2022-11-08T12:14:51.191Z,100759.38
2022-11-08T12:18:07.716Z,100760.08
2022-11-08T12:21:06.710Z,100756.95
2022-11-08T12:24:07.953Z,100750.70
2022-11-08T12:27:05.553Z,100750.66
2022-11-08T12:30:01.554Z,100747.99
2022-11-08T12:33:06.935Z,100743.10
2022-11-08T12:36:06.698Z,100740.55
2022-11-08T12:39:05.115Z,100742.59
2022-11-08T12:42:05.130Z,100741.66
2022-11-08T12:45:22.629Z,100738.83
2022-11-08T12:48:20.795Z,100742.64
2022-11-08T12:51:17.008Z,100740.25
2022-11-08T12:54:22.916Z,100734.70
2022-11-08T12:57:16.259Z,100733.33
2022-11-08T13:00:14.336Z,100735.04
2022-11-08T13:03:22.166Z,100728.40
2022-11-08T13:06:17.444Z,100730.69
2022-11-08T13:09:14.947Z,100727.50
2022-11-08T13:12:15.791Z,100724.05
2022-11-08T13:15:18.645Z,100729.83
2022-11-08T13:18:34.241Z,100727.69
2022-11-08T13:21:40.557Z,100722.34
2022-11-08T13:24:44.397Z,100722.42
2022-11-08T13:27:36.922Z,100716.91
2022-11-08T13:30:47.938Z,100724.33
2022-11-08T13:33:38.879Z,100720.93
2022-11-08T13:36:37.146Z,100722.70
2022-11-08T13:39:53.784Z,100719.06
2022-11-08T13:43:20.620Z,100717.20
2022-11-08T13:46:48.374Z,100713.70
2022-11-08T13:49:39.092Z,100714.01
2022-11-08T13:52:46.059Z,100710.89
2022-11-08T13:55:49.679Z,100712.45
2022-11-08T13:58:41.760Z,100708.84
2022-11-08T14:02:03.001Z,100708.33
2022-11-08T14:04:55.457Z,100700.89
2022-11-08T14:07:47.881Z,100697.66
2022-11-08T14:11:22.906Z,100700.81
2022-11-08T14:14:41.665Z,100693.77
2022-11-08T14:17:52.102Z,100696.42
2022-11-08T14:20:43.498Z,100698.02
2022-11-08T14:23:35.790Z,100704.92
2022-11-08T14:26:27.046Z,100700.55
2022-11-08T14:29:19.560Z,100700.70
2022-11-08T14:32:20.399Z,100697.91
2022-11-08T14:35:23.890Z,100699.11
2022-11-08T14:38:16.676Z,100701.98
2022-11-08T14:41:11.741Z,100700.18
2022-11-08T14:44:03.238Z,100696.15
2022-11-08T14:46:54.523Z,100695.17
2022-11-08T14:49:45.085Z,100692.84
2022-11-08T14:52:35.797Z,100690.83
2022-11-08T14:55:28.790Z,100692.61
2022-11-08T14:58:19.904Z,100685.85
2022-11-08T15:01:11.044Z,100689.21
2022-11-08T15:04:04.241Z,100691.02
2022-11-08T15:06:56.550Z,100689.59
2022-11-08T15:09:47.054Z,100693.81
2022-11-08T15:12:41.926Z,100695.20
2022-11-08T15:15:33.477Z,100692.83
2022-11-08T15:18:28.671Z,100692.66
2022-11-08T15:21:29.041Z,100691.69
2022-11-08T15:24:27.735Z,100693.66
2022-11-08T15:27:18.269Z,100690.38
2022-11-08T15:30:17.053Z,100686.53
2022-11-08T15:33:20.630Z,100688.23
2022-11-08T15:36:14.116Z,100685.85
2022-11-08T15:39:07.019Z,100683.89
2022-11-08T15:42:01.977Z,100685.88
2022-11-08T15:45:04.356Z,100684.82
2022-11-08T15:48:00.411Z,100686.58
2022-11-08T15:50:50.511Z,100685.61
2022-11-08T15:53:41.299Z,100683.92
2022-11-08T15:56:31.869Z,100681.32
2022-11-08T15:59:24.541Z,100682.15
2022-11-08T16:02:15.280Z,100682.38
2022-11-08T16:05:15.228Z,100681.98
2022-11-08T16:08:08.299Z,100686.48
2022-11-08T16:11:00.986Z,100685.87
2022-11-08T16:13:51.518Z,100687.73
2022-11-08T16:16:42.350Z,100690.48
2022-11-08T16:19:34.452Z,100686.23
2022-11-08T16:22:25.145Z,100693.89
2022-11-08T16:25:15.876Z,100695.35
2022-11-08T16:28:11.556Z,100697.56
2022-11-08T16:31:03.406Z,100697.90
2022-11-08T16:33:55.387Z,100698.52
2022-11-08T16:36:49.741Z,100698.45
2022-11-08T16:39:42.676Z,100696.65
2022-11-08T16:42:33.595Z,100695.55
2022-11-08T16:45:43.234Z,100693.52
2022-11-08T16:48:35.445Z,100692.60
2022-11-08T16:51:26.512Z,100692.56
2022-11-08T16:54:23.235Z,100695.30
2022-11-08T16:57:33.756Z,100697.88
2022-11-08T17:00:28.395Z,100699.81
2022-11-08T17:03:24.198Z,100694.94
2022-11-08T17:06:17.361Z,100699.48
2022-11-08T17:09:08.247Z,100707.81
2022-11-08T17:11:58.903Z,100704.55
2022-11-08T17:14:49.864Z,100703.98
2022-11-08T17:17:40.931Z,100697.69
2022-11-08T17:20:31.446Z,100697.98
2022-11-08T17:23:23.214Z,100698.84
2022-11-08T17:26:14.109Z,100701.56
2022-11-08T17:29:07.578Z,100702.58
2022-11-08T17:31:58.245Z,100702.51
2022-11-08T17:34:48.874Z,100701.88
2022-11-08T17:37:39.579Z,100706.49
2022-11-08T17:40:30.239Z,100699.17
2022-11-08T17:43:21.144Z,100697.35
2022-11-08T17:46:12.057Z,100693.61
2022-11-08T17:49:02.504Z,100690.02
2022-11-08T17:51:53.053Z,100688.05
2022-11-08T17:54:44.565Z,100693.17
2022-11-08T17:57:37.609Z,100698.66
2022-11-08T18:00:28.169Z,100699.05
2022-11-08T18:03:18.888Z,100698.27
2022-11-08T18:06:11.477Z,100699.52
2022-11-08T18:09:02.495Z,100698.20
2022-11-08T18:11:56.855Z,100695.90
2022-11-08T18:14:47.361Z,100698.79
2022-11-08T18:17:37.929Z,100698.86
2022-11-08T18:20:28.828Z,100705.12
2022-11-08T18:23:19.655Z,100703.58
2022-11-08T18:26:19.531Z,100708.08
2022-11-08T18:29:10.443Z,100706.25
2022-11-08T18:32:01.289Z,100699.80
2022-11-08T18:34:51.760Z,100700.99
2022-11-08T18:37:51.668Z,100696.58
2022-11-08T18:40:52.591Z,100696.58
2022-11-08T18:43:44.062Z,100691.95
2022-11-08T18:46:40.213Z,100686.67
2022-11-08T18:49:39.249Z,100687.52
2022-11-08T18:52:29.764Z,100682.77
2022-11-08T18:55:20.760Z,100678.28
2022-11-08T18:58:11.505Z,100677.45
2022-11-08T19:01:01.955Z,100672.63
2022-11-08T19:03:52.811Z,100673.27
2022-11-08T19:06:50.073Z,100679.18
2022-11-08T19:09:43.915Z,100683.23
2022-11-08T19:12:34.564Z,100682.05
2022-11-08T19:15:28.200Z,100678.95
2022-11-08T19:18:29.016Z,100682.08
2022-11-08T19:21:23.350Z,100680.68
2022-11-08T19:24:16.393Z,100682.45
2022-11-08T19:27:09.950Z,100680.52
2022-11-08T19:30:04.590Z,100678.59
2022-11-08T19:32:55.203Z,100678.70
2022-11-08T19:35:54.764Z,100673.86
2022-11-08T19:38:45.795Z,100676.77
2022-11-08T19:41:36.412Z,100678.55
2022-11-08T19:44:27.089Z,100682.68
2022-11-08T19:47:17.900Z,100680.96
2022-11-08T19:50:11.920Z,100683.30
2022-11-08T19:53:06.552Z,100682.96
2022-11-08T19:56:02.007Z,100679.67
2022-11-08T19:58:57.872Z,100674.02
2022-11-08T20:01:48.748Z,100670.20
2022-11-08T20:04:41.152Z,100671.11
2022-11-08T20:07:33.016Z,100674.83
2022-11-08T20:10:26.828Z,100676.30
2022-11-08T20:13:20.607Z,100671.98
2022-11-08T20:16:14.145Z,100673.45
2022-11-08T20:19:07.242Z,100669.64
2022-11-08T20:21:59.785Z,100666.48
2022-11-08T20:24:50.386Z,100665.22
2022-11-08T20:27:40.988Z,100658.66
2022-11-08T20:30:31.711Z,100652.70
2022-11-08T20:33:22.579Z,100648.58
2022-11-08T20:36:14.843Z,100649.04
2022-11-08T20:39:08.408Z,100651.83
2022-11-08T20:42:00.767Z,100654.50
2022-11-08T20:44:54.190Z,100655.78
2022-11-08T20:47:44.829Z,100653.28
2022-11-08T20:50:42.867Z,100656.39
2022-11-08T20:53:36.419Z,100657.41
2022-11-08T20:56:29.141Z,100660.03
2022-11-08T20:59:20.138Z,100661.59
2022-11-08T21:02:12.676Z,100660.34
2022-11-08T21:05:06.780Z,100661.52
2022-11-08T21:08:04.905Z,100655.44
2022-11-08T21:11:10.345Z,100654.17
2022-11-08T21:14:08.997Z,100652.70
2022-11-08T21:20:17.686Z,100654.06
2022-11-08T21:23:09.644Z,100657.17
2022-11-08T21:26:07.074Z,100658.41
2022-11-08T21:29:03.474Z,100661.12
2022-11-08T21:31:54.676Z,100657.92
2022-11-08T21:34:50.540Z,100655.07
2022-11-08T21:37:42.501Z,100653.08
2022-11-08T21:40:37.250Z,100654.50
2022-11-08T21:43:29.102Z,100658.16
2022-11-08T21:46:25.581Z,100656.52
2022-11-08T21:49:25.756Z,100652.56
2022-11-08T21:52:28.086Z,100655.42
2022-11-08T21:55:20.058Z,100652.70
2022-11-08T21:58:13.312Z,100648.28
2022-11-08T22:01:10.727Z,100647.95
2022-11-08T22:04:04.328Z,100648.78
2022-11-08T22:06:58.462Z,100649.70
2022-11-08T22:09:59.257Z,100649.38
2022-11-08T22:12:49.985Z,100645.52
2022-11-08T22:15:40.542Z,100639.52
2022-11-08T22:18:50.732Z,100637.23
2022-11-08T22:21:43.719Z,100638.86
2022-11-08T22:24:34.278Z,100632.02
2022-11-08T22:27:26.248Z,100630.83
2022-11-08T22:30:17.351Z,100628.73
2022-11-08T22:33:07.675Z,100628.52
2022-11-08T22:36:01.894Z,100621.61
2022-11-08T22:38:52.391Z,100621.89
2022-11-08T22:41:43.547Z,100622.92
2022-11-08T22:44:34.233Z,100620.66
2022-11-08T22:47:24.855Z,100619.28
2022-11-08T22:50:15.415Z,100623.53
2022-11-08T22:53:05.874Z,100626.65
2022-11-08T22:56:23.797Z,100624.77
2022-11-08T22:59:17.641Z,100626.48
2022-11-08T23:02:11.750Z,100625.86
2022-11-08T23:05:02.598Z,100623.23
2022-11-08T23:07:53.301Z,100622.34
2022-11-08T23:11:02.553Z,100616.52
2022-11-08T23:14:11.365Z,100614.92
2022-11-08T23:17:02.165Z,100611.39
2022-11-08T23:20:10.991Z,100615.89
2022-11-08T23:23:19.875Z,100621.29
2022-11-08T23:26:10.520Z,100619.88
2022-11-08T23:29:19.334Z,100624.18
2022-11-08T23:32:09.933Z,100620.78
2022-11-08T23:35:00.549Z,100620.68
2022-11-08T23:37:51.143Z,100615.98
2022-11-08T23:40:59.733Z,100607.00
2022-11-08T23:44:08.492Z,100607.85
2022-11-08T23:46:59.624Z,100602.02
2022-11-08T23:49:49.929Z,100602.39
2022-11-08T23:52:40.651Z,100601.48
2022-11-08T23:55:30.966Z,100598.18
2022-11-08T23:58:21.351Z,100597.15
